sensor_id;sensor_type;location;lat;lon;timestamp;pressure;altitude;pressure_sealevel;temperature;humidity
29941;BME280;16801;53.562;10.038;2024-03-22T00:01:30;101899.88;;;8.93;100.00
29941;BME280;16801;53.562;10.038;2024-03-22T00:04:52;101895.03;;;8.98;100.00
29941;BME280;16801;53.562;10.038;2024-03-22T00:08:12;101877.06;;;8.98;100.00
29941;BME280;16801;53.562;10.038;2024-03-22T00:11:35;101871.22;;;8.92;100.00
29941;BME280;16801;53.562;10.038;2024-03-22T00:14:56;101873.81;;;8.93;100.00
29941;BME280;16801;53.562;10.038;2024-03-22T00:18:17;101871.44;;;8.89;100.00
29941;BME280;16801;53.562;10.038;2024-03-22T00:21:39;101874.03;;;8.90;100.00
29941;BME280;16801;53.562;10.038;2024-03-22T00:24:59;101864.22;;;8.89;100.00
29941;BME280;16801;53.562;10.038;2024-03-22T00:28:20;101854.03;;;8.94;100.00
29941;BME280;16801;53.562;10.038;2024-03-22T00:31:41;101847.38;;;9.00;100.00
29941;BME280;16801;53.562;10.038;2024-03-22T00:35:03;101854.69;;;8.98;100.00
29941;BME280;16801;53.562;10.038;2024-03-22T00:38:25;101841.88;;;9.01;100.00
29941;BME280;16801;53.562;10.038;2024-03-22T00:41:45;101838.56;;;8.98;100.00
29941;BME280;16801;53.562;10.038;2024-03-22T00:45:07;101833.06;;;8.99;100.00
29941;BME280;16801;53.562;10.038;2024-03-22T00:48:28;101834.38;;;9.06;100.00
29941;BME280;16801;53.562;10.038;2024-03-22T00:51:50;101822.00;;;9.04;100.00
29941;BME280;16801;53.562;10.038;2024-03-22T00:55:20;101815.56;;;9.06;100.00
29941;BME280;16801;53.562;10.038;2024-03-22T00:58:45;101812.00;;;9.06;100.00
29941;BME280;16801;53.562;10.038;2024-03-22T01:02:05;101814.81;;;9.04;100.00
29941;BME280;16801;53.562;10.038;2024-03-22T01:05:27;101803.94;;;9.06;100.00
29941;BME280;16801;53.562;10.038;2024-03-22T01:08:49;101795.88;;;9.06;100.00
29941;BME280;16801;53.562;10.038;2024-03-22T01:12:17;101800.94;;;9.10;100.00
29941;BME280;16801;53.562;10.038;2024-03-22T01:15:39;101784.91;;;9.09;100.00
29941;BME280;16801;53.562;10.038;2024-03-22T01:19:00;101773.50;;;9.05;100.00
29941;BME280;16801;53.562;10.038;2024-03-22T01:22:21;101768.31;;;9.02;100.00
29941;BME280;16801;53.562;10.038;2024-03-22T01:25:42;101778.13;;;9.03;100.00
29941;BME280;16801;53.562;10.038;2024-03-22T01:29:13;101767.16;;;9.06;100.00
29941;BME280;16801;53.562;10.038;2024-03-22T01:32:34;101756.63;;;9.03;100.00
29941;BME280;16801;53.562;10.038;2024-03-22T01:36:01;101745.06;;;9.01;100.00
29941;BME280;16801;53.562;10.038;2024-03-22T01:39:26;101732.59;;;9.00;100.00
29941;BME280;16801;53.562;10.038;2024-03-22T01:42:47;101713.34;;;9.06;100.00
29941;BME280;16801;53.562;10.038;2024-03-22T01:46:09;101701.28;;;8.99;100.00
29941;BME280;16801;53.562;10.038;2024-03-22T01:49:31;101700.34;;;9.00;100.00
29941;BME280;16801;53.562;10.038;2024-03-22T01:52:56;101685.91;;;9.01;100.00
29941;BME280;16801;53.562;10.038;2024-03-22T01:56:19;101677.75;;;9.03;100.00
29941;BME280;16801;53.562;10.038;2024-03-22T01:59:51;101695.59;;;9.04;100.00
29941;BME280;16801;53.562;10.038;2024-03-22T02:03:15;101690.22;;;9.04;100.00
29941;BME280;16801;53.562;10.038;2024-03-22T02:06:36;101676.47;;;9.08;100.00
29941;BME280;16801;53.562;10.038;2024-03-22T02:09:57;101686.25;;;9.09;100.00
29941;BME280;16801;53.562;10.038;2024-03-22T02:13:44;101677.97;;;9.12;100.00
29941;BME280;16801;53.562;10.038;2024-03-22T02:17:41;101671.50;;;9.15;100.00
29941;BME280;16801;53.562;10.038;2024-03-22T02:21:04;101660.63;;;9.16;100.00
29941;BME280;16801;53.562;10.038;2024-03-22T02:24:26;101662.38;;;9.17;100.00
29941;BME280;16801;53.562;10.038;2024-03-22T02:27:47;101653.31;;;9.18;100.00
29941;BME280;16801;53.562;10.038;2024-03-22T02:31:10;101656.56;;;9.23;100.00
29941;BME280;16801;53.562;10.038;2024-03-22T02:34:33;101654.81;;;9.22;100.00
29941;BME280;16801;53.562;10.038;2024-03-22T02:37:53;101656.56;;;9.23;100.00
29941;BME280;16801;53.562;10.038;2024-03-22T02:41:16;101654.31;;;9.30;100.00
29941;BME280;16801;53.562;10.038;2024-03-22T02:44:36;101650.75;;;9.29;100.00
29941;BME280;16801;53.562;10.038;2024-03-22T02:48:02;101645.91;;;9.34;100.00
29941;BME280;16801;53.562;10.038;2024-03-22T02:51:34;101646.75;;;9.35;100.00
29941;BME280;16801;53.562;10.038;2024-03-22T02:54:56;101645.66;;;9.37;100.00
29941;BME280;16801;53.562;10.038;2024-03-22T02:58:19;101635.53;;;9.41;100.00
29941;BME280;16801;53.562;10.038;2024-03-22T03:01:41;101636.53;;;9.40;100.00
29941;BME280;16801;53.562;10.038;2024-03-22T03:05:01;101633.59;;;9.43;100.00
29941;BME280;16801;53.562;10.038;2024-03-22T03:08:23;101633.84;;;9.40;100.00
29941;BME280;16801;53.562;10.038;2024-03-22T03:11:43;101630.16;;;9.41;100.00
29941;BME280;16801;53.562;10.038;2024-03-22T03:15:06;101615.53;;;9.45;100.00
29941;BME280;16801;53.562;10.038;2024-03-22T03:18:27;101600.47;;;9.42;100.00
29941;BME280;16801;53.562;10.038;2024-03-22T03:21:47;101610.25;;;9.43;100.00
29941;BME280;16801;53.562;10.038;2024-03-22T03:25:10;101592.16;;;9.45;100.00
29941;BME280;16801;53.562;10.038;2024-03-22T03:28:31;101587.84;;;9.43;100.00
29941;BME280;16801;53.562;10.038;2024-03-22T03:31:53;101586.78;;;9.45;100.00
29941;BME280;16801;53.562;10.038;2024-03-22T03:35:14;101596.56;;;9.46;100.00
29941;BME280;16801;53.562;10.038;2024-03-22T03:38:34;101589.25;;;9.48;100.00
29941;BME280;16801;53.562;10.038;2024-03-22T03:42:00;101580.09;;;9.51;100.00
29941;BME280;16801;53.562;10.038;2024-03-22T03:45:21;101582.03;;;9.49;100.00
29941;BME280;16801;53.562;10.038;2024-03-22T03:48:46;101562.34;;;9.48;100.00
29941;BME280;16801;53.562;10.038;2024-03-22T03:52:09;101562.97;;;9.52;100.00
29941;BME280;16801;53.562;10.038;2024-03-22T03:55:29;101555.97;;;9.49;100.00
29941;BME280;16801;53.562;10.038;2024-03-22T03:58:51;101545.94;;;9.51;100.00
29941;BME280;16801;53.562;10.038;2024-03-22T04:02:13;101551.25;;;9.53;100.00
29941;BME280;16801;53.562;10.038;2024-03-22T04:05:34;101532.41;;;9.53;100.00
29941;BME280;16801;53.562;10.038;2024-03-22T04:08:56;101529.34;;;9.57;100.00
29941;BME280;16801;53.562;10.038;2024-03-22T04:12:17;101534.72;;;9.57;100.00
29941;BME280;16801;53.562;10.038;2024-03-22T04:15:38;101521.91;;;9.61;100.00
29941;BME280;16801;53.562;10.038;2024-03-22T04:18:59;101506.84;;;9.58;100.00
29941;BME280;16801;53.562;10.038;2024-03-22T04:22:21;101497.69;;;9.61;100.00
29941;BME280;16801;53.562;10.038;2024-03-22T04:25:53;101492.94;;;9.64;100.00
29941;BME280;16801;53.562;10.038;2024-03-22T04:29:14;101503.34;;;9.69;100.00
29941;BME280;16801;53.562;10.038;2024-03-22T04:32:34;101493.53;;;9.68;100.00
29941;BME280;16801;53.562;10.038;2024-03-22T04:35:56;101496.25;;;9.68;100.00
29941;BME280;16801;53.562;10.038;2024-03-22T04:39:19;101496.16;;;9.70;100.00
29941;BME280;16801;53.562;10.038;2024-03-22T04:42:40;101486.22;;;9.70;100.00
29941;BME280;16801;53.562;10.038;2024-03-22T04:46:01;101480.94;;;9.68;100.00
29941;BME280;16801;53.562;10.038;2024-03-22T04:49:22;101475.22;;;9.73;100.00
29941;BME280;16801;53.562;10.038;2024-03-22T04:52:42;101466.19;;;9.74;100.00
29941;BME280;16801;53.562;10.038;2024-03-22T04:56:05;101474.28;;;9.74;100.00
29941;BME280;16801;53.562;10.038;2024-03-22T04:59:27;101465.72;;;9.80;100.00
29941;BME280;16801;53.562;10.038;2024-03-22T05:02:47;101457.88;;;9.77;100.00
29941;BME280;16801;53.562;10.038;2024-03-22T05:06:08;101439.63;;;9.81;100.00
29941;BME280;16801;53.562;10.038;2024-03-22T05:09:29;101441.38;;;9.82;100.00
29941;BME280;16801;53.562;10.038;2024-03-22T05:12:53;101453.00;;;9.82;100.00
29941;BME280;16801;53.562;10.038;2024-03-22T05:16:14;101450.31;;;9.82;100.00
29941;BME280;16801;53.562;10.038;2024-03-22T05:19:35;101447.38;;;9.85;100.00
29941;BME280;16801;53.562;10.038;2024-03-22T05:22:55;101452.13;;;9.82;100.00
29941;BME280;16801;53.562;10.038;2024-03-22T05:26:16;101435.72;;;9.85;100.00
29941;BME280;16801;53.562;10.038;2024-03-22T05:29:39;101434.53;;;9.89;100.00
29941;BME280;16801;53.562;10.038;2024-03-22T05:32:59;101433.41;;;9.91;100.00
29941;BME280;16801;53.562;10.038;2024-03-22T05:36:20;101433.06;;;9.96;100.00
29941;BME280;16801;53.562;10.038;2024-03-22T05:39:42;101436.97;;;9.92;100.00
29941;BME280;16801;53.562;10.038;2024-03-22T05:43:04;101438.72;;;9.93;100.00
29941;BME280;16801;53.562;10.038;2024-03-22T05:46:27;101438.34;;;9.97;100.00
29941;BME280;16801;53.562;10.038;2024-03-22T05:49:48;101425.00;;;9.96;100.00
29941;BME280;16801;53.562;10.038;2024-03-22T05:53:09;101430.38;;;9.96;100.00
29941;BME280;16801;53.562;10.038;2024-03-22T05:56:30;101432.84;;;9.99;100.00
29941;BME280;16801;53.562;10.038;2024-03-22T05:59:50;101425.50;;;10.01;100.00
29941;BME280;16801;53.562;10.038;2024-03-22T06:03:14;101419.88;;;10.04;100.00
29941;BME280;16801;53.562;10.038;2024-03-22T06:06:35;101431.50;;;10.04;100.00
29941;BME280;16801;53.562;10.038;2024-03-22T06:09:55;101419.63;;;10.07;100.00
29941;BME280;16801;53.562;10.038;2024-03-22T06:13:16;101399.91;;;10.06;100.00
29941;BME280;16801;53.562;10.038;2024-03-22T06:16:35;101399.59;;;10.11;100.00
29941;BME280;16801;53.562;10.038;2024-03-22T06:19:58;101397.63;;;10.13;100.00
29941;BME280;16801;53.562;10.038;2024-03-22T06:23:19;101402.19;;;10.34;100.00
29941;BME280;16801;53.562;10.038;2024-03-22T06:26:39;101413.09;;;10.44;100.00
29941;BME280;16801;53.562;10.038;2024-03-22T06:30:00;101415.41;;;10.37;100.00
29941;BME280;16801;53.562;10.038;2024-03-22T06:33:21;101401.69;;;10.29;100.00
29941;BME280;16801;53.562;10.038;2024-03-22T06:36:43;101400.97;;;10.27;100.00
29941;BME280;16801;53.562;10.038;2024-03-22T06:40:04;101393.13;;;10.35;100.00
29941;BME280;16801;53.562;10.038;2024-03-22T06:43:26;101376.34;;;10.32;100.00
29941;BME280;16801;53.562;10.038;2024-03-22T06:46:46;101367.03;;;10.36;100.00
29941;BME280;16801;53.562;10.038;2024-03-22T06:50:07;101368.88;;;10.35;100.00
29941;BME280;16801;53.562;10.038;2024-03-22T06:53:30;101359.91;;;10.35;100.00
29941;BME280;16801;53.562;10.038;2024-03-22T06:56:51;101339.47;;;10.43;100.00
29941;BME280;16801;53.562;10.038;2024-03-22T07:00:13;101337.84;;;10.52;100.00
29941;BME280;16801;53.562;10.038;2024-03-22T07:03:34;101352.06;;;10.54;100.00
29941;BME280;16801;53.562;10.038;2024-03-22T07:06:55;101347.31;;;10.47;100.00
29941;BME280;16801;53.562;10.038;2024-03-22T07:10:17;101340.69;;;10.51;100.00
29941;BME280;16801;53.562;10.038;2024-03-22T07:13:41;101341.66;;;10.50;100.00
29941;BME280;16801;53.562;10.038;2024-03-22T07:17:02;101345.72;;;10.55;100.00
29941;BME280;16801;53.562;10.038;2024-03-22T07:20:22;101337.34;;;10.58;100.00
29941;BME280;16801;53.562;10.038;2024-03-22T07:23:43;101333.06;;;10.67;100.00
29941;BME280;16801;53.562;10.038;2024-03-22T07:27:05;101329.25;;;10.69;100.00
29941;BME280;16801;53.562;10.038;2024-03-22T07:30:25;101337.22;;;10.71;100.00
29941;BME280;16801;53.562;10.038;2024-03-22T07:33:47;101329.63;;;10.76;100.00
29941;BME280;16801;53.562;10.038;2024-03-22T07:37:10;101334.78;;;10.68;100.00
29941;BME280;16801;53.562;10.038;2024-03-22T07:41:00;101330.34;;;10.78;100.00
29941;BME280;16801;53.562;10.038;2024-03-22T07:44:22;101336.34;;;10.70;100.00
29941;BME280;16801;53.562;10.038;2024-03-22T07:47:43;101332.69;;;10.71;100.00
29941;BME280;16801;53.562;10.038;2024-03-22T07:51:04;101328.50;;;10.78;100.00
29941;BME280;16801;53.562;10.038;2024-03-22T07:54:24;101339.19;;;10.69;100.00
29941;BME280;16801;53.562;10.038;2024-03-22T07:57:45;101340.53;;;10.74;100.00
29941;BME280;16801;53.562;10.038;2024-03-22T08:01:07;101333.41;;;10.73;100.00
29941;BME280;16801;53.562;10.038;2024-03-22T08:04:28;101332.31;;;10.76;100.00
29941;BME280;16801;53.562;10.038;2024-03-22T08:07:48;101316.25;;;10.74;100.00
29941;BME280;16801;53.562;10.038;2024-03-22T08:11:10;101315.50;;;10.72;100.00
29941;BME280;16801;53.562;10.038;2024-03-22T08:14:31;101316.13;;;10.76;100.00
29941;BME280;16801;53.562;10.038;2024-03-22T08:17:54;101309.38;;;10.81;100.00
29941;BME280;16801;53.562;10.038;2024-03-22T08:21:15;101310.47;;;10.79;100.00
29941;BME280;16801;53.562;10.038;2024-03-22T08:24:36;101311.34;;;10.79;100.00
29941;BME280;16801;53.562;10.038;2024-03-22T08:27:57;101304.56;;;10.85;100.00
29941;BME280;16801;53.562;10.038;2024-03-22T08:31:17;101299.44;;;10.82;100.00
29941;BME280;16801;53.562;10.038;2024-03-22T08:34:42;101310.81;;;10.85;100.00
29941;BME280;16801;53.562;10.038;2024-03-22T08:38:03;101300.53;;;10.79;100.00
29941;BME280;16801;53.562;10.038;2024-03-22T08:41:25;101297.84;;;10.79;100.00
29941;BME280;16801;53.562;10.038;2024-03-22T08:44:45;101296.00;;;10.80;100.00
29941;BME280;16801;53.562;10.038;2024-03-22T08:48:06;101296.25;;;10.77;100.00
29941;BME280;16801;53.562;10.038;2024-03-22T08:51:28;101289.41;;;10.73;100.00
29941;BME280;16801;53.562;10.038;2024-03-22T08:54:50;101292.38;;;10.70;100.00
29941;BME280;16801;53.562;10.038;2024-03-22T08:58:11;101291.75;;;10.66;100.00
29941;BME280;16801;53.562;10.038;2024-03-22T09:01:32;101295.44;;;10.65;100.00
29941;BME280;16801;53.562;10.038;2024-03-22T09:04:53;101299.75;;;10.57;100.00
29941;BME280;16801;53.562;10.038;2024-03-22T09:08:15;101283.94;;;10.63;100.00
29941;BME280;16801;53.562;10.038;2024-03-22T09:11:36;101298.28;;;10.64;100.00
29941;BME280;16801;53.562;10.038;2024-03-22T09:14:57;101283.34;;;10.60;100.00
29941;BME280;16801;53.562;10.038;2024-03-22T09:18:16;101279.50;;;10.62;100.00
29941;BME280;16801;53.562;10.038;2024-03-22T09:21:37;101282.19;;;10.62;100.00
29941;BME280;16801;53.562;10.038;2024-03-22T09:24:59;101281.69;;;10.68;100.00
29941;BME280;16801;53.562;10.038;2024-03-22T09:28:19;101276.66;;;10.75;100.00
29941;BME280;16801;53.562;10.038;2024-03-22T09:31:40;101257.66;;;10.76;100.00
29941;BME280;16801;53.562;10.038;2024-03-22T09:35:00;101262.66;;;10.81;100.00
29941;BME280;16801;53.562;10.038;2024-03-22T09:38:21;101262.28;;;10.85;100.00
29941;BME280;16801;53.562;10.038;2024-03-22T09:41:43;101256.63;;;10.88;100.00
29941;BME280;16801;53.562;10.038;2024-03-22T09:45:08;101260.44;;;10.86;100.00
29941;BME280;16801;53.562;10.038;2024-03-22T09:48:33;101254.31;;;10.84;100.00
29941;BME280;16801;53.562;10.038;2024-03-22T09:51:54;101237.06;;;10.75;100.00
29941;BME280;16801;53.562;10.038;2024-03-22T09:55:14;101236.47;;;10.72;100.00
29941;BME280;16801;53.562;10.038;2024-03-22T09:58:37;101238.97;;;10.64;100.00
29941;BME280;16801;53.562;10.038;2024-03-22T10:01:58;101235.44;;;10.52;100.00
29941;BME280;16801;53.562;10.038;2024-03-22T10:05:19;101241.47;;;10.44;100.00
29941;BME280;16801;53.562;10.038;2024-03-22T10:08:40;101231.91;;;10.40;100.00
29941;BME280;16801;53.562;10.038;2024-03-22T10:12:02;101224.94;;;10.38;100.00
29941;BME280;16801;53.562;10.038;2024-03-22T10:15:24;101228.88;;;10.34;100.00
29941;BME280;16801;53.562;10.038;2024-03-22T10:18:46;101233.41;;;10.33;100.00
29941;BME280;16801;53.562;10.038;2024-03-22T10:22:07;101242.56;;;10.42;100.00
29941;BME280;16801;53.562;10.038;2024-03-22T10:25:29;101229.31;;;10.39;100.00
29941;BME280;16801;53.562;10.038;2024-03-22T10:28:50;101230.53;;;10.46;100.00
29941;BME280;16801;53.562;10.038;2024-03-22T10:32:12;101233.97;;;10.48;100.00
29941;BME280;16801;53.562;10.038;2024-03-22T10:35:33;101246.13;;;10.42;100.00
29941;BME280;16801;53.562;10.038;2024-03-22T10:38:54;101227.63;;;10.38;100.00
29941;BME280;16801;53.562;10.038;2024-03-22T10:42:16;101229.47;;;10.37;100.00
29941;BME280;16801;53.562;10.038;2024-03-22T10:45:40;101239.88;;;10.31;100.00
29941;BME280;16801;53.562;10.038;2024-03-22T10:49:03;101231.06;;;10.29;100.00
29941;BME280;16801;53.562;10.038;2024-03-22T10:52:26;101226.31;;;10.21;100.00
29941;BME280;16801;53.562;10.038;2024-03-22T10:55:48;101222.88;;;10.30;100.00
29941;BME280;16801;53.562;10.038;2024-03-22T10:59:13;101225.69;;;10.29;100.00
29941;BME280;16801;53.562;10.038;2024-03-22T11:02:34;101224.81;;;10.28;100.00
29941;BME280;16801;53.562;10.038;2024-03-22T11:05:57;101222.41;;;10.25;100.00
29941;BME280;16801;53.562;10.038;2024-03-22T11:09:21;101226.91;;;10.25;100.00
29941;BME280;16801;53.562;10.038;2024-03-22T11:12:41;101216.38;;;10.33;100.00
29941;BME280;16801;53.562;10.038;2024-03-22T11:16:02;101218.69;;;10.26;100.00
29941;BME280;16801;53.562;10.038;2024-03-22T11:19:22;101210.63;;;10.26;100.00
29941;BME280;16801;53.562;10.038;2024-03-22T11:22:44;101204.25;;;10.38;100.00
29941;BME280;16801;53.562;10.038;2024-03-22T11:26:05;101205.34;;;10.36;100.00
29941;BME280;16801;53.562;10.038;2024-03-22T11:29:27;101201.41;;;10.40;100.00
29941;BME280;16801;53.562;10.038;2024-03-22T11:32:48;101193.69;;;10.47;100.00
29941;BME280;16801;53.562;10.038;2024-03-22T11:36:08;101195.75;;;10.43;100.00
29941;BME280;16801;53.562;10.038;2024-03-22T11:39:31;101186.91;;;10.52;100.00
29941;BME280;16801;53.562;10.038;2024-03-22T11:42:53;101200.25;;;10.54;100.00
29941;BME280;16801;53.562;10.038;2024-03-22T11:46:15;101189.81;;;10.60;100.00
29941;BME280;16801;53.562;10.038;2024-03-22T11:49:35;101178.91;;;10.62;100.00
29941;BME280;16801;53.562;10.038;2024-03-22T11:52:56;101179.38;;;10.67;100.00
29941;BME280;16801;53.562;10.038;2024-03-22T11:56:21;101177.69;;;10.66;100.00
29941;BME280;16801;53.562;10.038;2024-03-22T11:59:42;101172.34;;;10.75;100.00
29941;BME280;16801;53.562;10.038;2024-03-22T12:03:04;101167.53;;;10.79;100.00
29941;BME280;16801;53.562;10.038;2024-03-22T12:06:25;101167.69;;;10.77;100.00
29941;BME280;16801;53.562;10.038;2024-03-22T12:09:45;101157.75;;;10.78;100.00
29941;BME280;16801;53.562;10.038;2024-03-22T12:13:08;101157.16;;;10.74;100.00
29941;BME280;16801;53.562;10.038;2024-03-22T12:16:29;101147.16;;;10.65;100.00
29941;BME280;16801;53.562;10.038;2024-03-22T12:19:50;101151.97;;;10.62;100.00
29941;BME280;16801;53.562;10.038;2024-03-22T12:23:11;101141.97;;;10.73;100.00
29941;BME280;16801;53.562;10.038;2024-03-22T12:26:32;101147.28;;;10.64;100.00
29941;BME280;16801;53.562;10.038;2024-03-22T12:29:55;101139.84;;;10.56;100.00
29941;BME280;16801;53.562;10.038;2024-03-22T12:33:16;101135.38;;;10.66;100.00
29941;BME280;16801;53.562;10.038;2024-03-22T12:36:37;101140.84;;;10.55;100.00
29941;BME280;16801;53.562;10.038;2024-03-22T12:39:57;101150.63;;;10.56;100.00
29941;BME280;16801;53.562;10.038;2024-03-22T12:43:17;101148.31;;;10.52;100.00
29941;BME280;16801;53.562;10.038;2024-03-22T12:46:39;101133.28;;;10.49;100.00
29941;BME280;16801;53.562;10.038;2024-03-22T12:50:02;101148.25;;;10.63;100.00
29941;BME280;16801;53.562;10.038;2024-03-22T12:53:24;101152.75;;;10.73;100.00
29941;BME280;16801;53.562;10.038;2024-03-22T12:56:45;101142.22;;;10.70;100.00
29941;BME280;16801;53.562;10.038;2024-03-22T13:00:08;101152.75;;;10.73;100.00
29941;BME280;16801;53.562;10.038;2024-03-22T13:03:52;101147.59;;;10.70;100.00
29941;BME280;16801;53.562;10.038;2024-03-22T13:07:13;101141.00;;;10.74;100.00
29941;BME280;16801;53.562;10.038;2024-03-22T13:10:34;101138.53;;;10.71;100.00
29941;BME280;16801;53.562;10.038;2024-03-22T13:13:55;101128.47;;;10.73;100.00
29941;BME280;16801;53.562;10.038;2024-03-22T13:17:16;101132.63;;;10.77;100.00
29941;BME280;16801;53.562;10.038;2024-03-22T13:20:37;101138.69;;;10.70;100.00
29941;BME280;16801;53.562;10.038;2024-03-22T13:23:58;101128.44;;;10.84;100.00
29941;BME280;16801;53.562;10.038;2024-03-22T13:27:18;101129.34;;;10.94;100.00
29941;BME280;16801;53.562;10.038;2024-03-22T13:30:46;101123.94;;;10.94;100.00
29941;BME280;16801;53.562;10.038;2024-03-22T13:34:06;101120.06;;;10.87;100.00
29941;BME280;16801;53.562;10.038;2024-03-22T13:37:28;101113.69;;;10.88;100.00
29941;BME280;16801;53.562;10.038;2024-03-22T13:40:53;101115.53;;;10.88;100.00
29941;BME280;16801;53.562;10.038;2024-03-22T13:44:14;101118.34;;;10.86;100.00
29941;BME280;16801;53.562;10.038;2024-03-22T13:47:34;101121.34;;;10.72;100.00
29941;BME280;16801;53.562;10.038;2024-03-22T13:50:57;101121.78;;;10.68;100.00
29941;BME280;16801;53.562;10.038;2024-03-22T13:54:19;101116.59;;;10.76;100.00
29941;BME280;16801;53.562;10.038;2024-03-22T13:57:40;101104.97;;;10.85;100.00
29941;BME280;16801;53.562;10.038;2024-03-22T14:01:00;101098.56;;;10.76;100.00
29941;BME280;16801;53.562;10.038;2024-03-22T14:04:22;101101.50;;;10.94;100.00
29941;BME280;16801;53.562;10.038;2024-03-22T14:07:45;101099.13;;;11.00;100.00
29941;BME280;16801;53.562;10.038;2024-03-22T14:11:07;101094.78;;;11.09;100.00
29941;BME280;16801;53.562;10.038;2024-03-22T14:14:28;101090.34;;;11.08;100.00
29941;BME280;16801;53.562;10.038;2024-03-22T14:17:48;101093.34;;;11.05;100.00
29941;BME280;16801;53.562;10.038;2024-03-22T14:21:08;101098.81;;;10.94;100.00
29941;BME280;16801;53.562;10.038;2024-03-22T14:24:31;101094.09;;;10.86;100.00
29941;BME280;16801;53.562;10.038;2024-03-22T14:27:52;101083.22;;;10.77;100.00
29941;BME280;16801;53.562;10.038;2024-03-22T14:31:13;101088.63;;;10.77;100.00
29941;BME280;16801;53.562;10.038;2024-03-22T14:34:33;101082.16;;;10.68;100.00
29941;BME280;16801;53.562;10.038;2024-03-22T14:37:54;101088.19;;;10.72;100.00
29941;BME280;16801;53.562;10.038;2024-03-22T14:41:14;101086.44;;;10.50;100.00
29941;BME280;16801;53.562;10.038;2024-03-22T14:44:36;101095.22;;;10.63;100.00
29941;BME280;16801;53.562;10.038;2024-03-22T14:47:58;101098.63;;;10.65;100.00
29941;BME280;16801;53.562;10.038;2024-03-22T14:51:17;101096.25;;;10.51;100.00
29941;BME280;16801;53.562;10.038;2024-03-22T14:54:38;101093.16;;;10.56;100.00
29941;BME280;16801;53.562;10.038;2024-03-22T14:58:01;101089.16;;;10.50;100.00
29941;BME280;16801;53.562;10.038;2024-03-22T15:01:23;101098.47;;;10.46;100.00
29941;BME280;16801;53.562;10.038;2024-03-22T15:04:43;101095.13;;;10.95;100.00
29941;BME280;16801;53.562;10.038;2024-03-22T15:08:05;101091.59;;;10.53;100.00
29941;BME280;16801;53.562;10.038;2024-03-22T15:11:25;101091.28;;;10.35;100.00
29941;BME280;16801;53.562;10.038;2024-03-22T15:14:46;101100.66;;;10.20;100.00
29941;BME280;16801;53.562;10.038;2024-03-22T15:18:09;101094.88;;;10.25;100.00
29941;BME280;16801;53.562;10.038;2024-03-22T15:21:33;101088.88;;;10.32;100.00
29941;BME280;16801;53.562;10.038;2024-03-22T15:24:58;101081.34;;;10.47;100.00
29941;BME280;16801;53.562;10.038;2024-03-22T15:28:19;101065.56;;;10.42;100.00
29941;BME280;16801;53.562;10.038;2024-03-22T15:31:40;101059.88;;;10.45;100.00
29941;BME280;16801;53.562;10.038;2024-03-22T15:35:01;101068.88;;;10.56;100.00
29941;BME280;16801;53.562;10.038;2024-03-22T15:38:23;101067.53;;;10.61;100.00
29941;BME280;16801;53.562;10.038;2024-03-22T15:41:44;101070.06;;;10.42;100.00
29941;BME280;16801;53.562;10.038;2024-03-22T15:45:05;101063.69;;;10.43;100.00
29941;BME280;16801;53.562;10.038;2024-03-22T15:48:26;101065.16;;;10.47;100.00
29941;BME280;16801;53.562;10.038;2024-03-22T15:51:47;101073.88;;;10.39;100.00
29941;BME280;16801;53.562;10.038;2024-03-22T15:55:09;101072.63;;;10.43;100.00
29941;BME280;16801;53.562;10.038;2024-03-22T15:58:32;101083.16;;;10.47;100.00
29941;BME280;16801;53.562;10.038;2024-03-22T16:01:53;101073.16;;;10.37;100.00
29941;BME280;16801;53.562;10.038;2024-03-22T16:05:14;101069.16;;;10.32;100.00
29941;BME280;16801;53.562;10.038;2024-03-22T16:08:36;101061.84;;;10.23;100.00
29941;BME280;16801;53.562;10.038;2024-03-22T16:11:57;101058.81;;;10.58;100.00
29941;BME280;16801;53.562;10.038;2024-03-22T16:15:17;101049.03;;;10.36;100.00
29941;BME280;16801;53.562;10.038;2024-03-22T16:18:38;101060.97;;;10.22;100.00
29941;BME280;16801;53.562;10.038;2024-03-22T16:21:59;101065.97;;;10.27;100.00
29941;BME280;16801;53.562;10.038;2024-03-22T16:25:20;101059.25;;;10.32;100.00
29941;BME280;16801;53.562;10.038;2024-03-22T16:28:41;101062.75;;;10.33;100.00
29941;BME280;16801;53.562;10.038;2024-03-22T16:32:02;101066.25;;;10.24;100.00
29941;BME280;16801;53.562;10.038;2024-03-22T16:35:23;101060.72;;;10.25;100.00
29941;BME280;16801;53.562;10.038;2024-03-22T16:38:43;101048.03;;;10.37;100.00
29941;BME280;16801;53.562;10.038;2024-03-22T16:42:06;101043.84;;;10.44;100.00
29941;BME280;16801;53.562;10.038;2024-03-22T16:45:27;101043.13;;;10.21;100.00
29941;BME280;16801;53.562;10.038;2024-03-22T16:48:47;101033.94;;;10.24;100.00
29941;BME280;16801;53.562;10.038;2024-03-22T16:52:08;101042.97;;;10.23;100.00
29941;BME280;16801;53.562;10.038;2024-03-22T16:55:30;101048.94;;;10.26;100.00
29941;BME280;16801;53.562;10.038;2024-03-22T16:58:53;101048.53;;;10.10;100.00
29941;BME280;16801;53.562;10.038;2024-03-22T17:02:14;101049.28;;;10.01;100.00
29941;BME280;16801;53.562;10.038;2024-03-22T17:05:35;101047.66;;;10.10;100.00
29941;BME280;16801;53.562;10.038;2024-03-22T17:08:57;101052.81;;;10.13;100.00
29941;BME280;16801;53.562;10.038;2024-03-22T17:12:21;101061.03;;;10.11;100.00